Time;durP1;ratioP1;P1;durP2;ratioP2;P2;SDS_P1;SDS_P2;PMS_P1;PMS_P2;Temp;Humidity;BMP_temperature;BMP_pressure;BME280_temperature;BME280_humidity;BME280_pressure;Samples;Min_cycle;Max_cycle;Signal;HPM_P1;HPM_P2
2023/09/15 00:02:08;;;;;;;4.93;2.70;;;15.10;99.90;;;;;;2584892;54;20035;31
2023/09/15 00:04:48;;;;;;;4.00;2.25;;;15.10;99.90;;;;;;2585493;54;20952;31
2023/09/15 00:07:25;;;;;;;3.75;2.50;;;15.10;99.90;;;;;;2585354;54;20112;31
2023/09/15 00:10:00;;;;;;;4.25;2.70;;;15.20;99.90;;;;;;2585735;54;20027;31
2023/09/15 00:12:42;;;;;;;4.55;2.40;;;15.10;99.90;;;;;;2604044;47;20089;31
2023/09/15 00:15:17;;;;;;;5.27;2.70;;;15.20;99.90;;;;;;2585657;54;20030;31
2023/09/15 00:17:52;;;;;;;4.10;2.60;;;15.20;99.90;;;;;;2585270;54;20027;31
2023/09/15 00:20:27;;;;;;;4.03;2.23;;;15.10;99.90;;;;;;2586213;54;20753;31
2023/09/15 00:23:03;;;;;;;5.65;2.42;;;15.10;99.90;;;;;;2586266;54;20081;31
2023/09/15 00:25:38;;;;;;;6.97;2.58;;;15.10;99.90;;;;;;2586480;54;20802;31
2023/09/15 00:28:14;;;;;;;4.47;2.72;;;15.10;99.90;;;;;;2604686;46;20037;31
2023/09/15 00:30:52;;;;;;;4.47;2.35;;;15.10;99.90;;;;;;2605205;46;20030;31
2023/09/15 00:33:26;;;;;;;4.00;2.30;;;15.10;99.90;;;;;;2586312;54;20970;31
2023/09/15 00:36:03;;;;;;;4.45;2.38;;;15.10;99.90;;;;;;2586301;54;20061;31
2023/09/15 00:38:41;;;;;;;5.00;2.60;;;15.10;99.90;;;;;;2585478;54;19946;31
2023/09/15 00:41:20;;;;;;;4.55;2.70;;;15.10;99.90;;;;;;2585691;54;20783;31
2023/09/15 00:43:53;;;;;;;6.50;2.40;;;15.10;99.90;;;;;;2586347;54;20964;31
2023/09/15 00:46:25;;;;;;;3.45;2.22;;;15.10;99.90;;;;;;2586432;54;21211;31
2023/09/15 00:49:03;;;;;;;4.38;2.78;;;15.00;99.90;;;;;;2586247;54;20077;31
2023/09/15 00:51:42;;;;;;;7.00;2.70;;;15.10;99.90;;;;;;2585624;54;20807;31
2023/09/15 00:54:18;;;;;;;6.40;3.35;;;15.10;99.90;;;;;;2586091;54;20902;31
2023/09/15 00:56:51;;;;;;;;;;;15.10;99.90;;;;;;2586404;54;19951;31
2023/09/15 00:59:27;;;;;;;6.65;2.20;;;15.10;99.90;;;;;;2586277;54;19942;31
2023/09/15 01:02:03;;;;;;;4.72;2.65;;;15.10;99.90;;;;;;2585371;54;20660;31
2023/09/15 01:04:38;;;;;;;4.90;2.43;;;15.00;99.90;;;;;;2586208;54;20034;31
2023/09/15 01:07:15;;;;;;;3.95;2.50;;;15.00;99.90;;;;;;2586142;54;20120;31
2023/09/15 01:09:48;;;;;;;3.35;2.13;;;15.00;99.90;;;;;;2604692;46;20051;31
2023/09/15 01:12:22;;;;;;;5.38;2.55;;;15.00;99.90;;;;;;2586179;54;20026;31
2023/09/15 01:15:05;;;;;;;3.60;2.53;;;15.10;99.90;;;;;;2586261;54;20005;31
2023/09/15 01:17:42;;;;;;;4.10;2.40;;;15.10;99.90;;;;;;2585937;54;20678;31
2023/09/15 01:20:21;;;;;;;4.35;2.40;;;15.10;99.90;;;;;;2684152;39;21484;31
2023/09/15 01:23:25;;;;;;;5.07;2.70;;;15.10;99.90;;;;;;2585935;54;20857;31
2023/09/15 01:26:35;;;;;;;3.45;2.30;;;15.10;99.90;;;;;;2684047;39;21429;31
2023/09/15 01:29:55;;;;;;;2.60;2.07;;;15.10;99.90;;;;;;2585717;54;20046;31
2023/09/15 01:32:28;;;;;;;3.88;2.50;;;15.10;99.90;;;;;;2683836;39;20731;31
2023/09/15 01:35:05;;;;;;;4.15;2.40;;;15.10;99.90;;;;;;2604139;46;20982;31
2023/09/15 01:37:41;;;;;;;4.60;2.70;;;15.10;99.90;;;;;;2585924;54;20026;31
2023/09/15 01:40:16;;;;;;;;;;;15.10;99.90;;;;;;2586146;54;20238;31
2023/09/15 01:42:51;;;;;;;4.10;1.98;;;15.20;99.90;;;;;;2586099;54;21100;31
2023/09/15 01:45:31;;;;;;;2.80;1.88;;;15.10;99.90;;;;;;2604646;46;20033;31
2023/09/15 01:48:04;;;;;;;4.40;2.65;;;15.10;99.90;;;;;;2586253;54;21217;31
2023/09/15 01:50:37;;;;;;;3.90;3.00;;;15.10;99.90;;;;;;2586129;54;20878;31
2023/09/15 01:53:11;;;;;;;3.88;2.20;;;15.10;99.90;;;;;;2684193;39;21472;31
2023/09/15 01:55:44;;;;;;;4.05;2.75;;;15.20;99.90;;;;;;2586257;54;20509;31
2023/09/15 01:58:19;;;;;;;5.47;3.00;;;15.20;99.90;;;;;;2585156;54;20041;31
2023/09/15 02:01:02;;;;;;;3.10;2.15;;;15.20;99.90;;;;;;2585987;54;20246;31
2023/09/15 02:03:35;;;;;;;9.32;3.10;;;15.10;99.90;;;;;;2586007;54;20794;31
2023/09/15 02:06:16;;;;;;;4.70;2.55;;;15.10;99.90;;;;;;2585323;54;20900;31
2023/09/15 02:08:52;;;;;;;3.22;2.00;;;15.20;99.90;;;;;;2604741;46;20082;31
2023/09/15 02:11:25;;;;;;;3.53;2.30;;;15.10;99.90;;;;;;2684059;39;20346;31
2023/09/15 02:13:59;;;;;;;4.40;2.30;;;15.20;99.90;;;;;;2586051;54;20033;31
2023/09/15 02:16:36;;;;;;;7.97;2.65;;;15.10;99.90;;;;;;2586079;54;20038;31
2023/09/15 02:19:13;;;;;;;4.00;2.15;;;15.20;99.90;;;;;;2754730;31;20497;31
2023/09/15 02:21:48;;;;;;;5.00;2.30;;;15.10;99.90;;;;;;2683820;39;22435;31
2023/09/15 02:24:26;;;;;;;5.65;2.58;;;15.10;99.90;;;;;;2585647;54;20948;31
2023/09/15 02:26:59;;;;;;;6.30;2.80;;;15.10;99.90;;;;;;2586331;54;19934;31
2023/09/15 02:29:35;;;;;;;5.07;2.50;;;15.10;99.90;;;;;;2585917;54;20057;31
2023/09/15 02:32:16;;;;;;;3.97;2.30;;;15.10;99.90;;;;;;2585971;54;21235;31
2023/09/15 02:34:52;;;;;;;5.20;2.60;;;15.10;99.90;;;;;;2585836;54;20034;31
2023/09/15 02:37:32;;;;;;;3.23;2.20;;;15.10;99.90;;;;;;2585259;54;20909;31
2023/09/15 02:40:07;;;;;;;3.85;2.35;;;15.20;99.90;;;;;;2585164;54;20869;31
2023/09/15 02:42:42;;;;;;;3.05;2.03;;;15.20;99.90;;;;;;2601366;46;19989;31
2023/09/15 02:45:21;;;;;;;6.30;2.50;;;15.20;99.90;;;;;;2585093;54;20955;31
2023/09/15 02:47:58;;;;;;;5.90;2.50;;;15.10;99.90;;;;;;2604172;46;20928;31
2023/09/15 02:50:36;;;;;;;4.60;2.65;;;15.10;99.90;;;;;;2585869;54;20872;31
2023/09/15 02:53:14;;;;;;;5.55;1.98;;;15.10;99.90;;;;;;2585966;54;20801;31
2023/09/15 02:55:59;;;;;;;5.10;2.40;;;15.10;99.90;;;;;;2586189;54;20037;31
2023/09/15 02:58:36;;;;;;;3.80;2.20;;;15.10;99.90;;;;;;2585781;54;20087;31
2023/09/15 03:01:16;;;;;;;6.90;2.10;;;15.10;99.90;;;;;;2604224;46;21097;31
2023/09/15 03:03:59;;;;;;;4.30;2.55;;;15.10;99.90;;;;;;2604197;46;20034;31
2023/09/15 03:06:35;;;;;;;4.15;2.60;;;15.10;99.90;;;;;;2585010;54;20081;31
2023/09/15 03:09:16;;;;;;;11.67;2.70;;;15.00;99.90;;;;;;2585138;54;20987;31
2023/09/15 03:11:51;;;;;;;5.70;2.60;;;15.00;99.90;;;;;;2585986;54;20234;31
2023/09/15 03:14:24;;;;;;;6.90;2.45;;;15.10;99.90;;;;;;2585666;54;20027;31
2023/09/15 03:17:01;;;;;;;5.80;2.40;;;15.10;99.90;;;;;;2585726;54;20042;31
2023/09/15 03:19:41;;;;;;;5.13;2.10;;;15.10;99.90;;;;;;2585092;54;20037;31
2023/09/15 03:22:17;;;;;;;5.97;2.08;;;15.10;99.90;;;;;;2585813;54;20929;31
2023/09/15 03:24:55;;;;;;;;;;;15.10;99.90;;;;;;2586083;54;20114;31
2023/09/15 03:27:33;;;;;;;3.15;1.83;;;15.10;99.90;;;;;;2585956;54;20787;31
2023/09/15 03:30:13;;;;;;;4.35;2.20;;;15.10;99.90;;;;;;2585813;54;20023;31
2023/09/15 03:32:48;;;;;;;4.00;2.70;;;15.10;99.90;;;;;;2585664;54;20061;31
2023/09/15 03:35:25;;;;;;;3.72;2.00;;;15.10;99.90;;;;;;2585892;54;20763;31
2023/09/15 03:38:03;;;;;;;4.78;2.38;;;15.10;99.90;;;;;;2588193;46;20089;31
2023/09/15 03:40:37;;;;;;;3.83;2.25;;;15.00;99.90;;;;;;2585691;54;20172;31
2023/09/15 03:43:13;;;;;;;6.28;2.58;;;15.00;99.90;;;;;;2585848;54;20854;31
2023/09/15 03:45:47;;;;;;;4.20;2.97;;;15.00;99.90;;;;;;2586089;54;20033;31
2023/09/15 03:48:26;;;;;;;5.05;2.25;;;15.00;99.90;;;;;;2604337;47;20909;31
2023/09/15 03:51:08;;;;;;;6.20;2.50;;;15.00;99.90;;;;;;2585688;54;20022;31
2023/09/15 03:53:41;;;;;;;5.70;3.10;;;15.10;99.90;;;;;;2586282;54;20893;31
2023/09/15 03:56:23;;;;;;;4.25;2.40;;;15.10;99.90;;;;;;2586781;54;20057;31
2023/09/15 03:59:00;;;;;;;5.90;2.50;;;15.10;99.90;;;;;;2604960;46;20031;31
2023/09/15 04:01:34;;;;;;;4.40;2.23;;;15.10;99.90;;;;;;2755552;31;22637;31
2023/09/15 04:04:16;;;;;;;4.43;2.37;;;15.10;99.90;;;;;;2586579;54;20882;31
2023/09/15 04:06:55;;;;;;;3.58;2.03;;;15.10;99.90;;;;;;2586422;54;20050;31
2023/09/15 04:09:32;;;;;;;6.07;2.50;;;15.10;99.90;;;;;;2585636;54;20027;31
2023/09/15 04:12:11;;;;;;;3.38;2.00;;;15.10;99.90;;;;;;2585741;54;20042;31
2023/09/15 04:14:45;;;;;;;4.40;2.20;;;15.20;99.90;;;;;;2586411;54;20114;31
2023/09/15 04:17:21;;;;;;;3.70;2.00;;;15.20;99.90;;;;;;2585852;54;20759;31
2023/09/15 04:19:57;;;;;;;4.13;2.03;;;15.20;99.90;;;;;;2586333;54;20081;31
2023/09/15 04:22:51;;;;;;;3.47;2.00;;;15.20;99.90;;;;;;2585476;54;20269;31
2023/09/15 04:25:25;;;;;;;2.53;1.10;;;15.20;99.90;;;;;;2586640;54;20029;31
2023/09/15 04:27:57;;;;;;;5.57;2.60;;;15.30;99.90;;;;;;2586212;54;20042;31
2023/09/15 04:30:33;;;;;;;4.80;2.28;;;15.30;99.90;;;;;;2586363;54;20940;31
2023/09/15 04:33:08;;;;;;;3.10;1.70;;;15.20;99.90;;;;;;2586475;54;20878;31
2023/09/15 04:35:48;;;;;;;7.18;3.08;;;15.30;99.90;;;;;;2586423;54;20971;31
2023/09/15 04:38:26;;;;;;;4.50;2.40;;;15.30;99.90;;;;;;2586375;54;19934;31
2023/09/15 04:41:04;;;;;;;5.57;2.65;;;15.30;99.90;;;;;;2585315;54;20795;31
2023/09/15 04:43:43;;;;;;;6.65;1.85;;;15.30;99.90;;;;;;2585449;54;20046;31
2023/09/15 04:46:21;;;;;;;5.00;2.40;;;15.30;99.90;;;;;;2585540;54;20046;31
2023/09/15 04:48:55;;;;;;;5.45;2.70;;;15.30;99.90;;;;;;2684110;39;22613;31
2023/09/15 04:51:29;;;;;;;5.93;2.57;;;15.30;99.90;;;;;;2601677;46;21580;31
2023/09/15 04:54:09;;;;;;;3.40;2.57;;;15.30;99.90;;;;;;2586161;54;20785;31
2023/09/15 04:56:50;;;;;;;5.35;2.60;;;15.30;99.90;;;;;;2586675;46;20019;31
2023/09/15 04:59:27;;;;;;;5.40;2.47;;;15.30;99.90;;;;;;2585174;54;19965;31
2023/09/15 05:02:06;;;;;;;6.00;1.92;;;15.30;99.90;;;;;;2585364;54;20029;31
2023/09/15 05:04:42;;;;;;;5.65;3.35;;;15.30;99.90;;;;;;2588776;46;20914;31
2023/09/15 05:07:20;;;;;;;3.83;2.55;;;15.30;99.90;;;;;;2585394;54;20056;31
2023/09/15 05:09:58;;;;;;;4.00;2.25;;;15.30;99.90;;;;;;2585916;54;20125;31
2023/09/15 05:12:36;;;;;;;5.03;2.13;;;15.40;99.90;;;;;;2586121;54;20029;31
2023/09/15 05:15:13;;;;;;;5.20;2.47;;;15.40;99.90;;;;;;2586573;54;20743;31
2023/09/15 05:17:50;;;;;;;3.45;1.65;;;15.50;99.90;;;;;;2591784;46;20023;31
2023/09/15 05:20:26;;;;;;;6.55;2.60;;;15.50;99.90;;;;;;2595701;46;20882;31
2023/09/15 05:23:01;;;;;;;;;;;15.50;99.90;;;;;;2598503;46;20026;31
2023/09/15 05:25:38;;;;;;;7.05;2.50;;;15.50;99.90;;;;;;2604803;46;20808;31
2023/09/15 05:28:14;;;;;;;5.75;2.83;;;15.50;99.90;;;;;;2586212;54;20920;31
2023/09/15 05:30:52;;;;;;;5.00;2.90;;;15.60;99.90;;;;;;2585340;54;21522;31
2023/09/15 05:33:32;;;;;;;5.13;2.67;;;15.60;99.90;;;;;;2604742;46;20023;31
2023/09/15 05:36:04;;;;;;;6.22;3.22;;;15.60;99.90;;;;;;2586396;54;20030;31
2023/09/15 05:38:41;;;;;;;8.40;2.70;;;15.70;99.90;;;;;;2586170;54;20781;31
2023/09/15 05:41:24;;;;;;;5.90;2.95;;;15.70;99.90;;;;;;2586149;54;20955;31
2023/09/15 05:43:56;;;;;;;4.15;2.60;;;15.70;99.90;;;;;;2604383;46;20912;31
2023/09/15 05:46:37;;;;;;;3.83;2.60;;;15.80;99.90;;;;;;2605120;46;20092;31
2023/09/15 05:49:13;;;;;;;4.23;2.60;;;15.80;99.90;;;;;;2586045;54;20235;31
2023/09/15 05:51:47;;;;;;;6.10;2.80;;;15.90;99.90;;;;;;2596864;46;20970;31
2023/09/15 05:54:20;;;;;;;5.75;3.00;;;15.90;99.90;;;;;;2604516;46;20106;31
2023/09/15 05:56:56;;;;;;;6.80;3.35;;;16.00;99.90;;;;;;2586013;54;20089;31
2023/09/15 05:59:32;;;;;;;5.80;2.88;;;16.10;99.90;;;;;;2586182;54;20034;31
2023/09/15 06:02:07;;;;;;;;;;;16.20;99.90;;;;;;2604748;46;20037;31
2023/09/15 06:04:42;;;;;;;21.43;16.87;;;16.20;99.90;;;;;;2585299;54;19950;31
2023/09/15 06:07:17;;;;;;;16.75;15.05;;;16.30;99.90;;;;;;2585418;54;20493;31
2023/09/15 06:09:52;;;;;;;18.85;16.65;;;16.50;99.90;;;;;;2604672;46;20023;31
2023/09/15 06:12:34;;;;;;;20.70;18.57;;;16.60;99.90;;;;;;2586323;54;20045;31
2023/09/15 06:15:14;;;;;;;16.67;13.50;;;16.70;99.90;;;;;;2584998;54;21159;31
2023/09/15 06:17:50;;;;;;;15.33;12.37;;;16.90;99.90;;;;;;2586070;54;20126;31
2023/09/15 06:20:26;;;;;;;20.05;15.20;;;17.00;99.90;;;;;;2585202;54;20898;31
2023/09/15 06:23:02;;;;;;;28.67;22.77;;;17.10;99.90;;;;;;2585863;54;21670;31
2023/09/15 06:25:40;;;;;;;23.30;19.23;;;17.20;99.90;;;;;;2586253;54;20868;31
2023/09/15 06:28:23;;;;;;;19.25;16.60;;;17.40;99.90;;;;;;2586261;54;20511;31
2023/09/15 06:30:58;;;;;;;15.85;11.45;;;17.50;99.90;;;;;;2586057;54;20032;31
2023/09/15 06:33:45;;;;;;;9.85;7.28;;;17.60;99.90;;;;;;2585689;54;20093;31
2023/09/15 06:36:18;;;;;;;;;;;17.70;99.90;;;;;;2605092;46;20038;31
2023/09/15 06:38:54;;;;;;;7.57;3.53;;;17.70;99.90;;;;;;2585589;54;19935;31
2023/09/15 06:41:32;;;;;;;6.80;3.45;;;17.80;99.90;;;;;;2585942;54;20327;31
2023/09/15 06:44:14;;;;;;;4.88;2.83;;;17.80;99.90;;;;;;2586326;54;21546;31
2023/09/15 06:46:50;;;;;;;6.55;3.25;;;17.90;99.90;;;;;;2702331;39;21625;31
2023/09/15 06:49:30;;;;;;;6.70;3.55;;;17.90;99.90;;;;;;2585904;54;20052;31
2023/09/15 06:52:09;;;;;;;6.25;2.90;;;18.00;99.90;;;;;;2585060;54;20045;31
2023/09/15 06:54:47;;;;;;;5.53;3.33;;;18.10;99.90;;;;;;2585061;54;20027;31
2023/09/15 06:57:26;;;;;;;5.97;3.23;;;18.20;99.90;;;;;;2585171;54;21125;31
2023/09/15 07:00:11;;;;;;;7.30;3.10;;;18.40;99.90;;;;;;2585990;54;20246;31
2023/09/15 07:02:47;;;;;;;5.20;3.40;;;18.80;99.90;;;;;;2585880;54;20845;31
2023/09/15 07:05:20;;;;;;;7.60;3.40;;;19.10;99.90;;;;;;2585982;54;20783;31
2023/09/15 07:07:58;;;;;;;4.07;2.73;;;19.60;99.90;;;;;;2585872;54;20085;31
2023/09/15 07:10:33;;;;;;;5.17;2.33;;;20.00;99.90;;;;;;2586070;54;20057;31
2023/09/15 07:13:10;;;;;;;6.68;2.70;;;20.40;99.90;;;;;;2586003;54;20048;31
2023/09/15 07:15:48;;;;;;;5.27;2.70;;;20.60;99.90;;;;;;2585081;54;20864;31
2023/09/15 07:18:26;;;;;;;5.03;2.40;;;21.00;99.90;;;;;;2585113;54;20975;31
2023/09/15 07:21:04;;;;;;;3.60;2.40;;;21.20;99.90;;;;;;2683620;39;21425;31
2023/09/15 07:23:45;;;;;;;4.95;2.30;;;21.50;99.90;;;;;;2585850;54;20958;31
2023/09/15 07:26:19;;;;;;;3.20;2.07;;;21.80;99.90;;;;;;2585660;54;20950;31
2023/09/15 07:29:00;;;;;;;8.45;2.13;;;21.90;99.90;;;;;;2585810;54;20050;31
2023/09/15 07:31:40;;;;;;;4.10;1.65;;;22.00;99.90;;;;;;2683047;39;22388;31
2023/09/15 07:34:18;;;;;;;4.70;2.50;;;21.90;99.90;;;;;;2595521;46;20026;31
2023/09/15 07:36:54;;;;;;;4.32;2.38;;;21.60;99.90;;;;;;2585098;54;20047;31
2023/09/15 07:39:29;;;;;;;4.10;2.35;;;21.40;99.90;;;;;;2585551;54;20749;31
2023/09/15 07:42:02;;;;;;;3.10;2.07;;;21.20;99.90;;;;;;2586013;54;20848;31
2023/09/15 07:44:40;;;;;;;4.90;2.40;;;20.90;99.90;;;;;;2585081;54;20042;31
2023/09/15 07:47:19;;;;;;;4.20;2.60;;;20.70;99.90;;;;;;2585119;54;20914;31
2023/09/15 07:49:58;;;;;;;3.75;2.10;;;20.60;99.90;;;;;;2585847;54;20938;31
2023/09/15 07:52:33;;;;;;;4.85;2.60;;;20.40;99.90;;;;;;2585612;54;20901;31
2023/09/15 07:55:10;;;;;;;4.43;2.33;;;20.20;99.90;;;;;;2585707;54;20868;31
2023/09/15 07:57:46;;;;;;;4.65;2.95;;;20.10;99.90;;;;;;2585771;54;20899;31
2023/09/15 08:00:27;;;;;;;5.00;2.30;;;20.00;99.90;;;;;;2584907;54;20019;31
2023/09/15 08:03:08;;;;;;;5.78;2.50;;;19.90;99.90;;;;;;2584557;54;20757;31
2023/09/15 08:05:44;;;;;;;5.00;2.67;;;19.90;99.90;;;;;;2584661;54;20018;31
2023/09/15 08:08:22;;;;;;;5.38;3.10;;;19.90;99.90;;;;;;2584340;54;20893;31
2023/09/15 08:10:57;;;;;;;5.30;2.00;;;19.90;99.90;;;;;;2584955;54;20046;31
2023/09/15 08:13:31;;;;;;;4.35;2.30;;;20.00;99.90;;;;;;2585716;54;21093;31
2023/09/15 08:16:06;;;;;;;3.43;2.03;;;20.10;99.90;;;;;;2585118;54;20898;31
2023/09/15 08:18:46;;;;;;;6.63;3.15;;;20.30;99.90;;;;;;2585583;54;20180;31
2023/09/15 08:21:21;;;;;;;3.53;2.10;;;20.40;99.90;;;;;;2603855;47;20055;31
2023/09/15 08:23:56;;;;;;;5.60;2.50;;;20.50;99.90;;;;;;2604010;47;20998;31
2023/09/15 08:26:33;;;;;;;5.10;1.95;;;20.60;99.90;;;;;;2594049;47;20893;31
2023/09/15 08:29:19;;;;;;;3.65;2.10;;;20.70;99.90;;;;;;2604249;47;20110;31
2023/09/15 08:31:53;;;;;;;4.68;2.35;;;20.90;99.90;;;;;;2604191;47;20921;31
2023/09/15 08:34:31;;;;;;;6.43;2.65;;;21.10;99.90;;;;;;2585415;54;20892;31
2023/09/15 08:37:06;;;;;;;7.70;2.30;;;21.30;99.90;;;;;;2604309;47;20026;31
2023/09/15 08:39:42;;;;;;;5.63;2.53;;;21.30;99.90;;;;;;2586521;54;20057;31
2023/09/15 08:42:19;;;;;;;4.38;2.10;;;21.60;99.90;;;;;;2586563;54;19957;31
2023/09/15 08:45:04;;;;;;;4.10;2.20;;;21.80;99.90;;;;;;2587425;46;20120;31
2023/09/15 08:47:41;;;;;;;3.43;2.00;;;22.20;99.90;;;;;;2586410;54;20027;31
2023/09/15 08:50:18;;;;;;;3.75;2.25;;;22.40;99.90;;;;;;2604349;46;20234;31
2023/09/15 08:52:51;;;;;;;4.50;1.90;;;22.20;99.90;;;;;;2586349;54;20181;31
2023/09/15 08:55:26;;;;;;;4.03;1.98;;;22.10;99.90;;;;;;2586395;54;20867;31
2023/09/15 08:58:01;;;;;;;;;;;22.00;99.90;;;;;;2586826;54;20023;31
2023/09/15 09:00:35;;;;;;;3.88;1.55;;;22.00;99.90;;;;;;2604507;46;19934;31
2023/09/15 09:03:12;;;;;;;4.07;2.07;;;22.00;99.90;;;;;;2586343;54;20027;31
2023/09/15 09:05:53;;;;;;;5.72;2.25;;;22.00;99.90;;;;;;2605117;46;19934;31
2023/09/15 09:08:31;;;;;;;4.00;2.08;;;22.00;99.90;;;;;;2586294;54;20871;31
2023/09/15 09:11:08;;;;;;;4.90;1.98;;;22.00;99.90;;;;;;2683471;39;22275;31
2023/09/15 09:13:45;;;;;;;3.03;1.30;;;22.50;99.90;;;;;;2604902;46;20034;31
2023/09/15 09:16:24;;;;;;;2.22;1.40;;;22.70;99.90;;;;;;2604816;46;20976;31
2023/09/15 09:18:59;;;;;;;4.05;1.73;;;23.00;99.90;;;;;;2585932;54;20031;31
2023/09/15 09:21:38;;;;;;;4.20;1.10;;;23.30;99.90;;;;;;2586440;54;20036;31
2023/09/15 09:24:15;;;;;;;2.40;1.45;;;23.30;99.90;;;;;;2604552;46;20068;31
2023/09/15 09:26:57;;;;;;;3.57;1.50;;;23.30;99.90;;;;;;2586243;54;20761;31
2023/09/15 09:29:34;;;;;;;3.53;1.40;;;23.20;99.90;;;;;;2586208;54;20081;31
2023/09/15 09:32:09;;;;;;;4.13;1.35;;;23.20;99.90;;;;;;2683490;39;22297;31
2023/09/15 09:34:51;;;;;;;4.57;0.98;;;23.00;99.90;;;;;;2586281;54;20081;31
2023/09/15 09:37:25;;;;;;;2.72;1.13;;;22.80;99.90;;;;;;2586164;54;20030;31
2023/09/15 09:40:06;;;;;;;2.85;1.10;;;22.60;99.90;;;;;;2683502;39;22374;31
2023/09/15 09:42:46;;;;;;;2.47;0.93;;;22.40;99.90;;;;;;2585780;46;20921;31
2023/09/15 09:45:30;;;;;;;3.25;1.20;;;22.30;99.90;;;;;;2586249;54;20787;31
2023/09/15 09:48:09;;;;;;;7.23;1.53;;;22.20;99.90;;;;;;2586332;54;20027;31
2023/09/15 09:50:45;;;;;;;2.08;0.90;;;22.20;99.90;;;;;;2586061;54;20026;31
2023/09/15 09:53:19;;;;;;;;;;;22.30;99.90;;;;;;2586481;54;20844;31
2023/09/15 09:56:01;;;;;;;2.40;1.15;;;22.50;99.90;;;;;;2585805;54;19940;31
2023/09/15 09:58:41;;;;;;;1.90;1.10;;;22.70;99.90;;;;;;2605166;46;20919;31
2023/09/15 10:01:20;;;;;;;2.10;1.10;;;22.90;99.90;;;;;;2586248;54;20101;31
2023/09/15 10:03:57;;;;;;;1.90;1.10;;;23.00;99.90;;;;;;2585670;54;20764;31
2023/09/15 10:06:37;;;;;;;3.63;1.37;;;22.80;99.90;;;;;;2604616;46;20030;31
2023/09/15 10:09:13;;;;;;;4.10;0.90;;;22.70;99.90;;;;;;2585508;54;20033;31
2023/09/15 10:11:51;;;;;;;1.65;0.88;;;22.60;99.90;;;;;;2586251;54;19989;31
2023/09/15 10:14:43;;;;;;;2.90;0.93;;;22.50;99.90;;;;;;2586005;54;20037;31
2023/09/15 10:17:25;;;;;;;2.90;0.60;;;22.50;99.90;;;;;;2586227;54;20033;31
2023/09/15 10:20:00;;;;;;;2.00;0.93;;;22.50;99.90;;;;;;2585993;54;20046;31
2023/09/15 10:22:33;;;;;;;1.95;0.93;;;22.50;99.90;;;;;;2586239;54;20052;31
2023/09/15 10:25:17;;;;;;;2.53;0.82;;;22.60;99.90;;;;;;2585956;54;20033;31
2023/09/15 10:27:57;;;;;;;2.25;1.10;;;22.60;99.90;;;;;;2585624;54;20027;31
2023/09/15 10:30:37;;;;;;;1.33;0.87;;;22.60;99.90;;;;;;2591499;46;20771;31
2023/09/15 10:33:14;;;;;;;2.08;0.80;;;22.70;99.90;;;;;;2585537;54;20022;31
2023/09/15 10:35:55;;;;;;;2.73;1.30;;;22.70;99.90;;;;;;2585947;54;20807;31
2023/09/15 10:38:32;;;;;;;4.35;0.90;;;22.90;99.90;;;;;;2586136;54;20116;31
2023/09/15 10:41:11;;;;;;;1.95;1.00;;;23.20;99.90;;;;;;2598051;46;20062;31
2023/09/15 10:43:55;;;;;;;5.25;1.20;;;23.60;99.90;;;;;;2585895;54;20020;31
2023/09/15 10:46:39;;;;;;;1.98;0.90;;;23.80;99.90;;;;;;2585990;54;20744;31
2023/09/15 10:49:18;;;;;;;1.85;0.70;;;24.00;99.90;;;;;;2586182;54;20038;31
2023/09/15 10:51:58;;;;;;;1.88;0.52;;;24.00;99.90;;;;;;2586106;54;20060;31
2023/09/15 10:54:36;;;;;;;1.92;0.80;;;24.00;99.90;;;;;;2586165;54;20089;31
2023/09/15 10:57:10;;;;;;;2.60;0.90;;;23.80;99.90;;;;;;2585914;54;20037;31
2023/09/15 11:00:05;;;;;;;1.20;0.70;;;23.70;99.90;;;;;;2586215;54;20027;31
2023/09/15 11:02:41;;;;;;;2.50;1.00;;;23.60;99.90;;;;;;2586076;54;20861;31
2023/09/15 11:05:15;;;;;;;2.17;0.70;;;23.40;99.90;;;;;;2585541;54;20841;31
2023/09/15 11:07:55;;;;;;;1.48;0.63;;;23.50;99.90;;;;;;2585171;54;20061;31
2023/09/15 11:10:34;;;;;;;1.25;0.57;;;23.40;99.90;;;;;;2682812;39;21339;31
2023/09/15 11:13:08;;;;;;;1.60;0.80;;;23.40;99.90;;;;;;2585687;54;21582;31
2023/09/15 11:15:50;;;;;;;1.87;0.60;;;23.40;99.90;;;;;;2586004;54;20988;31
2023/09/15 11:18:23;;;;;;;2.65;0.90;;;23.40;99.90;;;;;;2604059;46;20553;31
2023/09/15 11:21:02;;;;;;;1.53;0.70;;;23.40;99.90;;;;;;2585624;54;20906;31
2023/09/15 11:23:40;;;;;;;1.67;0.75;;;23.40;99.90;;;;;;2599807;46;21269;31
2023/09/15 11:26:18;;;;;;;1.75;0.90;;;23.40;99.90;;;;;;2585997;54;20912;31
2023/09/15 11:29:03;;;;;;;2.47;0.70;;;23.30;99.90;;;;;;2702199;39;21568;31
2023/09/15 11:31:41;;;;;;;1.30;0.75;;;23.40;99.90;;;;;;2683825;39;22326;31
2023/09/15 11:34:17;;;;;;;2.15;0.80;;;23.40;99.90;;;;;;2687807;39;20447;31
2023/09/15 11:36:53;;;;;;;4.40;0.80;;;23.40;99.90;;;;;;2586056;54;20038;31
2023/09/15 11:39:29;;;;;;;2.05;0.77;;;23.20;99.90;;;;;;2604882;46;20027;31
2023/09/15 11:42:11;;;;;;;1.58;0.68;;;23.30;99.90;;;;;;2585608;54;20037;31
2023/09/15 11:44:55;;;;;;;1.20;0.70;;;23.10;99.90;;;;;;2604360;46;20026;31
2023/09/15 11:47:36;;;;;;;1.80;0.70;;;23.10;99.90;;;;;;2585631;54;20875;31
2023/09/15 11:50:13;;;;;;;2.07;0.57;;;23.00;99.90;;;;;;2585808;54;20789;31
2023/09/15 11:52:47;;;;;;;1.87;0.50;;;23.00;99.90;;;;;;2585789;54;20782;31
2023/09/15 11:55:26;;;;;;;1.77;0.70;;;22.90;99.90;;;;;;2604560;47;20053;31
2023/09/15 11:58:03;;;;;;;1.00;0.50;;;22.90;99.90;;;;;;2585840;54;20032;31
2023/09/15 12:00:39;;;;;;;1.40;0.80;;;22.80;99.90;;;;;;2604589;47;20029;31
2023/09/15 12:03:18;;;;;;;1.55;0.75;;;22.70;99.90;;;;;;2585854;54;20245;31
2023/09/15 12:05:55;;;;;;;1.35;0.50;;;22.70;99.90;;;;;;2585588;54;20559;31
2023/09/15 12:08:31;;;;;;;1.95;0.68;;;22.70;99.90;;;;;;2585620;54;20026;31
2023/09/15 12:11:08;;;;;;;1.35;0.60;;;22.80;99.90;;;;;;2684410;39;20393;31
2023/09/15 12:13:48;;;;;;;0.90;0.40;;;22.80;99.90;;;;;;2684052;39;21619;31
2023/09/15 12:19:13;;;;;;;1.33;0.60;;;22.80;99.90;;;;;;2684141;39;20428;31
2023/09/15 12:21:52;;;;;;;1.40;0.60;;;22.90;99.90;;;;;;2590158;46;20054;31
2023/09/15 12:24:29;;;;;;;1.17;0.50;;;23.00;99.90;;;;;;2586529;54;20859;31
2023/09/15 12:27:04;;;;;;;1.33;0.50;;;23.10;99.90;;;;;;2586442;54;20509;31
2023/09/15 12:29:42;;;;;;;1.75;0.70;;;23.30;99.90;;;;;;2702930;39;21474;31
2023/09/15 12:34:57;;;;;;;1.20;0.55;;;23.30;99.90;;;;;;2605216;46;20027;31
2023/09/15 12:37:35;;;;;;;1.02;0.55;;;23.20;99.90;;;;;;2702816;39;20409;31
2023/09/15 12:40:12;;;;;;;2.75;0.60;;;23.20;99.90;;;;;;2586322;54;20056;31
2023/09/15 12:43:00;;;;;;;1.50;0.70;;;23.10;99.90;;;;;;2586603;54;20045;31
2023/09/15 12:45:35;;;;;;;2.42;0.47;;;23.10;99.90;;;;;;2586352;54;20089;31
2023/09/15 12:48:10;;;;;;;;;;;23.10;99.90;;;;;;2586474;54;20042;31
2023/09/15 12:50:51;;;;;;;1.15;0.60;;;23.00;99.90;;;;;;2586272;54;19941;31
2023/09/15 12:53:28;;;;;;;2.23;0.70;;;23.00;99.90;;;;;;2586386;54;21225;31
2023/09/15 12:58:52;;;;;;;3.63;0.60;;;22.90;99.90;;;;;;2586041;54;20787;31
2023/09/15 13:01:39;;;;;;;;;;;22.90;99.90;;;;;;2586478;54;20030;31
2023/09/15 13:04:20;;;;;;;2.20;0.80;;;22.90;99.90;;;;;;2586198;54;19958;31
2023/09/15 13:07:00;;;;;;;2.28;0.60;;;22.90;99.90;;;;;;2586141;54;20060;31
2023/09/15 13:09:38;;;;;;;1.25;0.70;;;22.80;99.90;;;;;;2585391;54;20034;31
2023/09/15 13:12:17;;;;;;;1.40;0.80;;;22.80;99.90;;;;;;2585311;54;20082;31
2023/09/15 13:14:52;;;;;;;0.97;0.50;;;22.80;99.90;;;;;;2586377;54;21090;31
2023/09/15 13:17:30;;;;;;;1.43;0.60;;;22.80;99.90;;;;;;2585871;54;20093;31
2023/09/15 13:20:07;;;;;;;1.02;0.40;;;22.90;99.90;;;;;;2605016;46;20109;31
2023/09/15 13:22:46;;;;;;;2.78;0.60;;;22.90;99.90;;;;;;2586445;54;20153;31
2023/09/15 13:25:21;;;;;;;1.95;0.80;;;22.90;99.90;;;;;;2604690;46;20772;31
2023/09/15 13:28:04;;;;;;;1.70;0.70;;;22.90;99.90;;;;;;2586363;54;20056;31
2023/09/15 13:30:39;;;;;;;1.23;0.52;;;22.90;99.90;;;;;;2586345;54;20973;31
2023/09/15 13:33:20;;;;;;;2.30;0.70;;;23.00;99.90;;;;;;2586201;54;20045;31
2023/09/15 13:35:55;;;;;;;1.73;0.75;;;23.00;99.90;;;;;;2586260;54;20297;31
2023/09/15 13:38:32;;;;;;;3.08;0.75;;;23.00;99.90;;;;;;2586428;54;20852;31
2023/09/15 13:41:06;;;;;;;1.95;0.55;;;23.00;99.90;;;;;;2586087;54;20053;31
2023/09/15 13:43:41;;;;;;;2.25;0.70;;;23.00;99.90;;;;;;2586243;54;20034;31
2023/09/15 13:46:16;;;;;;;1.30;0.50;;;23.00;99.90;;;;;;2586104;54;20876;31
2023/09/15 13:48:54;;;;;;;2.03;0.70;;;23.00;99.90;;;;;;2604967;46;20756;31
2023/09/15 13:51:31;;;;;;;1.20;0.47;;;23.00;99.90;;;;;;2596241;46;20057;31
2023/09/15 13:54:22;;;;;;;3.40;0.60;;;23.00;99.90;;;;;;2586320;54;20046;31
2023/09/15 13:57:00;;;;;;;2.00;0.80;;;23.00;99.90;;;;;;2604832;46;21215;31
2023/09/15 13:59:42;;;;;;;2.27;0.90;;;23.00;99.90;;;;;;2586389;54;20781;31
2023/09/15 14:02:17;;;;;;;1.40;0.70;;;23.00;99.90;;;;;;2586298;54;20863;31